Time;durP1;ratioP1;P1;durP2;ratioP2;P2;SDS_P1;SDS_P2;PMS_P1;PMS_P2;Temp;Humidity;BMP_temperature;BMP_pressure;BME280_temperature;BME280_humidity;BME280_pressure;Samples;Min_cycle;Max_cycle;Signal;HPM_P1;HPM_P2
2022/11/12 00:01:25;;;;;;;16.57;11.70;;;10.80;99.90;;;;;;5028607;28;20203;-69
2022/11/12 00:03:52;;;;;;;16.93;10.50;;;10.80;99.90;;;;;;5026806;28;20231;-69
2022/11/12 00:06:19;;;;;;;14.93;10.67;;;10.80;99.90;;;;;;5027654;28;20204;-68
2022/11/12 00:08:45;;;;;;;16.77;10.70;;;10.90;99.90;;;;;;5028483;28;20271;-69
2022/11/12 00:11:12;;;;;;;17.87;11.10;;;10.90;99.90;;;;;;5028476;28;20630;-69
2022/11/12 00:13:39;;;;;;;13.70;10.43;;;10.90;99.90;;;;;;5027281;28;20207;-68
2022/11/12 00:16:08;;;;;;;16.03;10.10;;;10.80;99.90;;;;;;5026266;28;20206;-68
2022/11/12 00:18:35;;;;;;;16.13;11.13;;;10.80;99.90;;;;;;5027082;28;20261;-69
2022/11/12 00:21:02;;;;;;;18.40;11.20;;;10.80;99.90;;;;;;5027431;28;20222;-69
2022/11/12 00:23:28;;;;;;;15.47;10.37;;;10.90;99.90;;;;;;5026191;28;20210;-69
2022/11/12 00:25:59;;;;;;;13.80;9.97;;;10.90;99.90;;;;;;5028123;28;20218;-69
2022/11/12 00:28:26;;;;;;;16.67;10.77;;;10.80;99.90;;;;;;5028682;28;20203;-68
2022/11/12 00:30:53;;;;;;;15.33;10.37;;;10.90;99.90;;;;;;5029242;28;20230;-67
2022/11/12 00:33:21;;;;;;;16.40;10.60;;;10.90;99.90;;;;;;5028311;28;20650;-67
2022/11/12 00:35:48;;;;;;;15.30;10.67;;;10.90;99.90;;;;;;5029101;28;20218;-68
2022/11/12 00:38:15;;;;;;;19.57;10.47;;;10.90;99.90;;;;;;5028987;28;20227;-67
2022/11/12 00:40:42;;;;;;;17.83;10.63;;;10.90;99.90;;;;;;5028028;28;20275;-68
2022/11/12 00:43:08;;;;;;;15.67;10.87;;;10.90;99.90;;;;;;5028194;28;20203;-67
2022/11/12 00:45:35;;;;;;;13.53;10.53;;;10.90;99.90;;;;;;5028513;28;20214;-67
2022/11/12 00:48:02;;;;;;;16.23;10.70;;;10.90;99.90;;;;;;5028855;28;20210;-69
2022/11/12 00:50:30;;;;;;;15.37;10.23;;;10.90;99.90;;;;;;5028939;28;20204;-68
2022/11/12 00:52:57;;;;;;;15.63;10.00;;;10.80;99.90;;;;;;5028817;28;20287;-68
2022/11/12 00:55:23;;;;;;;15.87;10.00;;;10.90;99.90;;;;;;5028431;28;20207;-69
2022/11/12 00:57:50;;;;;;;14.90;10.23;;;10.90;99.90;;;;;;5027887;28;20274;-68
2022/11/12 01:00:18;;;;;;;14.97;9.63;;;10.90;99.90;;;;;;5028295;28;20225;-68
2022/11/12 01:02:46;;;;;;;15.17;10.13;;;10.90;99.90;;;;;;5027880;28;20235;-68
2022/11/12 01:05:12;;;;;;;16.70;10.27;;;10.90;99.90;;;;;;5028633;28;20191;-67
2022/11/12 01:07:41;;;;;;;12.60;9.80;;;10.90;99.90;;;;;;5028918;28;20199;-68
2022/11/12 01:10:08;;;;;;;13.57;9.37;;;10.80;99.90;;;;;;5028240;28;20675;-68
2022/11/12 01:12:35;;;;;;;12.67;10.03;;;10.90;99.90;;;;;;5028445;28;20222;-68
2022/11/12 01:15:02;;;;;;;15.33;10.67;;;10.90;99.90;;;;;;5026962;28;20207;-69
2022/11/12 01:17:29;;;;;;;13.00;9.27;;;10.90;99.90;;;;;;5028018;28;20207;-68
2022/11/12 01:19:55;;;;;;;12.83;9.77;;;10.90;99.90;;;;;;5029114;28;20505;-68
2022/11/12 01:22:22;;;;;;;16.63;10.37;;;10.90;99.90;;;;;;5032481;28;20199;-68
2022/11/12 01:24:50;;;;;;;15.47;10.07;;;10.90;99.90;;;;;;5031944;28;20210;-69
2022/11/12 01:27:17;;;;;;;14.50;9.87;;;10.90;99.90;;;;;;5031796;28;20234;-68
2022/11/12 01:29:44;;;;;;;13.40;9.77;;;10.90;99.90;;;;;;5031161;28;20290;-68
2022/11/12 01:32:11;;;;;;;13.20;9.20;;;10.90;99.90;;;;;;5033022;28;20660;-69
2022/11/12 01:34:37;;;;;;;14.47;9.57;;;10.80;99.90;;;;;;5032017;28;20207;-68
2022/11/12 01:37:04;;;;;;;15.87;10.00;;;10.80;99.90;;;;;;5033068;28;20213;-69
2022/11/12 01:39:31;;;;;;;11.93;9.47;;;10.90;99.90;;;;;;5032503;28;20223;-67
2022/11/12 01:41:59;;;;;;;14.07;9.83;;;10.90;99.90;;;;;;5031649;28;20207;-68
2022/11/12 01:44:31;;;;;;;12.97;9.67;;;10.90;99.90;;;;;;5032274;28;20336;-68
2022/11/12 01:47:02;;;;;;;16.40;11.10;;;10.90;99.90;;;;;;5031267;28;20203;-67
2022/11/12 01:49:34;;;;;;;14.03;9.97;;;10.90;99.90;;;;;;5032795;28;20196;-68
2022/11/12 01:52:12;;;;;;;14.10;9.07;;;10.90;99.90;;;;;;5032620;28;20639;-67
2022/11/12 01:54:40;;;;;;;12.60;9.03;;;10.90;99.90;;;;;;5032738;28;20202;-68
2022/11/12 01:57:11;;;;;;;14.27;9.80;;;10.90;99.90;;;;;;5032020;28;20583;-69
2022/11/12 01:59:43;;;;;;;12.67;9.47;;;10.90;99.90;;;;;;5032566;28;20539;-69
2022/11/12 02:02:10;;;;;;;12.67;9.00;;;10.90;99.90;;;;;;5031889;28;20275;-67
2022/11/12 02:04:38;;;;;;;15.47;10.30;;;10.90;99.90;;;;;;5031193;28;20302;-67
2022/11/12 02:07:07;;;;;;;13.67;9.07;;;10.90;99.90;;;;;;5031784;28;20348;-68
2022/11/12 02:09:35;;;;;;;13.27;9.27;;;10.90;99.90;;;;;;5032319;28;20203;-68
2022/11/12 02:12:01;;;;;;;13.83;10.03;;;10.90;99.90;;;;;;5032119;28;20203;-67
2022/11/12 02:14:30;;;;;;;12.53;9.13;;;10.90;99.90;;;;;;5031782;28;20214;-67
2022/11/12 02:16:57;;;;;;;14.00;9.90;;;10.90;99.90;;;;;;5031088;28;20275;-67
2022/11/12 02:19:25;;;;;;;15.53;9.90;;;10.90;99.90;;;;;;5031150;28;20227;-68
2022/11/12 02:21:53;;;;;;;15.07;9.87;;;10.90;99.90;;;;;;5030365;28;20239;-67
2022/11/12 02:24:34;;;;;;;13.47;9.80;;;10.90;99.90;;;;;;5031494;28;20231;-67
2022/11/12 02:27:01;;;;;;;16.47;10.93;;;10.80;99.90;;;;;;5031773;28;20302;-68
2022/11/12 02:29:28;;;;;;;14.63;10.27;;;10.80;99.90;;;;;;5031157;28;20305;-67
2022/11/12 02:31:55;;;;;;;16.27;10.67;;;10.80;99.90;;;;;;5029427;28;20208;-67
2022/11/12 02:34:21;;;;;;;14.30;9.80;;;10.80;99.90;;;;;;5030343;28;20265;-66
2022/11/12 02:36:48;;;;;;;14.57;10.03;;;10.80;99.90;;;;;;5030484;28;20214;-67
2022/11/12 02:39:16;;;;;;;14.50;10.20;;;10.90;99.90;;;;;;5031462;28;20223;-68
2022/11/12 02:41:43;;;;;;;14.60;11.23;;;10.80;99.90;;;;;;5031517;28;20218;-67
2022/11/12 02:44:10;;;;;;;15.87;10.73;;;10.80;99.90;;;;;;5031286;28;20210;-67
2022/11/12 02:46:37;;;;;;;16.10;10.47;;;10.80;99.90;;;;;;5031583;28;20195;-67
2022/11/12 02:49:04;;;;;;;16.80;10.67;;;10.80;99.90;;;;;;5032292;28;20217;-68
2022/11/12 02:51:30;;;;;;;15.10;10.20;;;10.80;99.90;;;;;;5031669;28;20294;-67
2022/11/12 02:53:57;;;;;;;13.40;10.50;;;10.80;99.90;;;;;;5030344;28;20631;-68
2022/11/12 02:56:25;;;;;;;17.23;11.07;;;10.80;99.90;;;;;;5031706;28;20207;-68
2022/11/12 02:58:52;;;;;;;14.83;10.67;;;10.80;99.90;;;;;;5031404;28;20219;-68
2022/11/12 03:01:19;;;;;;;16.53;10.70;;;10.80;99.90;;;;;;5032045;28;20211;-67
2022/11/12 03:03:46;;;;;;;21.47;11.87;;;10.80;99.90;;;;;;5030331;28;20239;-68
2022/11/12 03:06:13;;;;;;;13.50;10.67;;;10.80;99.90;;;;;;5031084;28;20207;-68
2022/11/12 03:08:39;;;;;;;17.47;11.60;;;10.80;99.90;;;;;;5030259;28;20199;-68
2022/11/12 03:11:08;;;;;;;14.50;11.70;;;10.80;99.90;;;;;;5031044;28;20294;-67
2022/11/12 03:13:36;;;;;;;16.73;11.13;;;10.80;99.90;;;;;;5031088;28;20230;-68
2022/11/12 03:16:03;;;;;;;15.10;11.17;;;10.80;99.90;;;;;;5030953;28;20199;-67
2022/11/12 03:18:30;;;;;;;16.10;11.07;;;10.80;99.90;;;;;;5031115;28;20267;-67
2022/11/12 03:20:56;;;;;;;15.67;10.83;;;10.80;99.90;;;;;;5030569;28;20200;-68
2022/11/12 03:23:23;;;;;;;16.90;11.07;;;10.80;99.90;;;;;;5030761;28;20217;-66
2022/11/12 03:25:50;;;;;;;16.70;10.97;;;10.80;99.90;;;;;;5029875;28;20203;-69
2022/11/12 03:28:17;;;;;;;16.70;11.07;;;10.80;99.90;;;;;;5030831;28;20216;-68
2022/11/12 03:30:45;;;;;;;15.10;11.17;;;10.70;99.90;;;;;;5030534;28;20223;-67
2022/11/12 03:33:14;;;;;;;15.07;11.47;;;10.70;99.90;;;;;;5030196;28;20210;-67
2022/11/12 03:35:41;;;;;;;15.50;10.50;;;10.70;99.90;;;;;;5031180;28;20207;-68
2022/11/12 03:38:08;;;;;;;17.23;11.17;;;10.70;99.90;;;;;;5030729;28;20214;-68
2022/11/12 03:40:35;;;;;;;15.60;11.07;;;10.70;99.90;;;;;;5031220;28;20310;-68
2022/11/12 03:43:02;;;;;;;16.33;11.13;;;10.60;99.90;;;;;;5029340;28;20270;-68
2022/11/12 03:45:28;;;;;;;16.30;11.20;;;10.60;99.90;;;;;;5030487;28;20226;-68
2022/11/12 03:47:57;;;;;;;13.83;11.50;;;10.60;99.90;;;;;;5031290;28;20199;-67
2022/11/12 03:50:26;;;;;;;13.23;10.00;;;10.60;99.90;;;;;;5030710;28;20191;-68
2022/11/12 03:52:55;;;;;;;15.83;11.57;;;10.60;99.90;;;;;;5030981;28;20210;-68
2022/11/12 03:55:24;;;;;;;15.97;11.07;;;10.60;99.90;;;;;;5030413;28;20768;-68
2022/11/12 03:57:52;;;;;;;16.20;10.53;;;10.60;99.90;;;;;;5030132;28;20203;-68
2022/11/12 04:00:20;;;;;;;16.80;11.07;;;10.60;99.90;;;;;;5030190;28;20231;-67
2022/11/12 04:02:47;;;;;;;18.40;11.50;;;10.60;99.90;;;;;;5030336;28;20243;-68
2022/11/12 04:10:52;;;;;;;14.43;10.13;;;10.60;99.90;;;;;;5019993;28;20242;-68
2022/11/12 04:13:28;;;;;;;16.63;10.70;;;10.60;99.90;;;;;;5029616;28;20207;-69
2022/11/12 04:27:00;;;;;;;15.07;10.23;;;10.50;99.90;;;;;;5031019;28;20336;-68
2022/11/12 04:32:11;;;;;;;14.60;10.20;;;10.50;99.90;;;;;;5031408;28;20191;-67
2022/11/12 04:34:38;;;;;;;13.70;9.53;;;10.50;99.90;;;;;;5032037;28;20214;-68
2022/11/12 04:37:07;;;;;;;14.83;10.03;;;10.50;99.90;;;;;;5031021;28;20207;-68
2022/11/12 04:39:33;;;;;;;16.70;9.63;;;10.50;99.90;;;;;;5030326;28;20223;-67
2022/11/12 04:45:00;;;;;;;15.60;10.30;;;10.50;99.90;;;;;;5030012;28;20259;-68
2022/11/12 04:47:29;;;;;;;14.87;9.90;;;10.50;99.90;;;;;;5031136;28;20199;-68
2022/11/12 04:49:56;;;;;;;14.70;9.27;;;10.50;99.90;;;;;;5030840;28;20215;-68
2022/11/12 04:52:25;;;;;;;17.33;10.77;;;10.50;99.90;;;;;;5030386;28;20207;-68
2022/11/12 04:54:52;;;;;;;17.20;9.93;;;10.50;99.90;;;;;;5029316;28;20210;-68
2022/11/12 04:57:19;;;;;;;16.13;10.23;;;10.40;99.90;;;;;;5030737;28;20194;-68
2022/11/12 04:59:46;;;;;;;18.80;11.40;;;10.40;99.90;;;;;;5030509;28;20326;-68
2022/11/12 05:02:13;;;;;;;17.67;10.20;;;10.40;99.90;;;;;;5029255;28;20202;-68
2022/11/12 05:04:40;;;;;;;17.73;11.23;;;10.30;99.90;;;;;;5030383;28;20250;-68
2022/11/12 05:07:07;;;;;;;18.20;10.50;;;10.30;99.90;;;;;;5030835;28;20270;-67
2022/11/12 05:09:35;;;;;;;17.13;11.47;;;10.30;99.90;;;;;;5030160;28;20206;-67
2022/11/12 05:12:03;;;;;;;19.77;11.60;;;10.30;99.90;;;;;;5029400;28;20241;-67
2022/11/12 05:14:30;;;;;;;18.90;11.27;;;10.20;99.90;;;;;;5030019;28;20203;-67
2022/11/12 05:16:57;;;;;;;18.70;11.77;;;10.20;99.90;;;;;;5029688;28;20214;-68
2022/11/12 05:19:23;;;;;;;19.23;11.17;;;10.20;99.90;;;;;;5029172;28;20239;-68
2022/11/12 05:22:06;;;;;;;17.10;11.90;;;10.10;99.90;;;;;;5029770;28;20694;-68
2022/11/12 05:24:42;;;;;;;18.67;12.17;;;10.10;99.90;;;;;;5030749;28;20268;-68
2022/11/12 05:27:10;;;;;;;17.10;13.37;;;10.10;99.90;;;;;;5029837;28;20199;-67
2022/11/12 05:29:38;;;;;;;18.27;12.10;;;10.10;99.90;;;;;;5030126;28;20461;-66
2022/11/12 05:32:05;;;;;;;16.53;11.57;;;10.00;99.90;;;;;;5029705;28;20200;-67
2022/11/12 05:34:32;;;;;;;18.97;12.97;;;10.00;99.90;;;;;;5030113;28;20197;-67
2022/11/12 05:36:59;;;;;;;17.70;12.07;;;10.00;99.90;;;;;;5027884;28;20230;-68
2022/11/12 05:39:26;;;;;;;19.23;12.90;;;10.00;99.90;;;;;;5028986;28;20231;-68
2022/11/12 05:41:54;;;;;;;19.63;13.00;;;10.00;99.90;;;;;;5029884;28;20230;-69
2022/11/12 05:44:21;;;;;;;18.67;12.93;;;10.00;99.90;;;;;;5029488;28;20204;-68
2022/11/12 05:46:49;;;;;;;18.93;12.90;;;9.90;99.90;;;;;;5030542;28;20776;-67
2022/11/12 05:49:16;;;;;;;19.27;12.97;;;9.90;99.90;;;;;;5030521;28;20211;-68
2022/11/12 05:51:43;;;;;;;15.93;12.20;;;9.90;99.90;;;;;;5029239;28;20213;-68
2022/11/12 05:54:10;;;;;;;20.43;13.50;;;9.80;99.90;;;;;;5029759;28;20199;-67
2022/11/12 05:56:37;;;;;;;21.07;14.27;;;9.80;99.90;;;;;;5029842;28;20238;-67
2022/11/12 05:59:07;;;;;;;18.37;13.73;;;9.80;99.90;;;;;;5029283;28;20207;-67
2022/11/12 06:01:37;;;;;;;21.00;14.50;;;9.80;99.90;;;;;;5029405;28;20206;-68
2022/11/12 06:04:04;;;;;;;21.47;15.40;;;9.70;99.90;;;;;;5029425;28;20262;-68
2022/11/12 06:06:30;;;;;;;24.80;14.73;;;9.70;99.90;;;;;;5031019;28;20298;-68
2022/11/12 06:08:57;;;;;;;23.30;14.50;;;9.70;99.90;;;;;;5033437;28;20218;-67
2022/11/12 06:11:24;;;;;;;20.80;14.80;;;9.60;99.90;;;;;;5032271;28;20407;-67
2022/11/12 06:13:51;;;;;;;20.90;14.27;;;9.60;99.90;;;;;;5033120;28;20271;-69
2022/11/12 06:16:19;;;;;;;19.50;14.57;;;9.60;99.90;;;;;;5033345;28;20208;-67
2022/11/12 06:18:46;;;;;;;24.83;16.70;;;9.60;99.90;;;;;;5033022;28;20267;-69
2022/11/12 06:21:22;;;;;;;24.13;13.97;;;9.50;99.90;;;;;;5033690;28;20286;-68
2022/11/12 06:23:51;;;;;;;18.13;13.60;;;9.50;99.90;;;;;;5033121;28;20186;-67
2022/11/12 06:26:19;;;;;;;19.87;13.80;;;9.50;99.90;;;;;;5032455;28;20278;-68
2022/11/12 06:28:46;;;;;;;23.33;15.77;;;9.50;99.90;;;;;;5014840;28;20267;-69
2022/11/12 06:31:14;;;;;;;22.57;15.07;;;9.40;99.90;;;;;;5012445;28;20218;-69
2022/11/12 06:33:42;;;;;;;22.10;15.00;;;9.40;99.90;;;;;;5013121;28;20279;-69
2022/11/12 06:36:11;;;;;;;21.03;16.60;;;9.40;99.90;;;;;;5011939;28;20294;-68
2022/11/12 06:38:39;;;;;;;24.60;16.73;;;9.40;99.90;;;;;;5011483;28;20215;-67
2022/11/12 06:41:07;;;;;;;25.30;17.00;;;9.40;99.90;;;;;;5011560;28;20251;-67
2022/11/12 06:43:35;;;;;;;22.50;17.47;;;9.30;99.90;;;;;;5022866;28;20463;-68
2022/11/12 06:46:04;;;;;;;23.90;17.63;;;9.30;99.90;;;;;;5030028;28;20200;-68
2022/11/12 06:48:31;;;;;;;25.03;18.30;;;9.30;99.90;;;;;;5029351;28;20227;-69
2022/11/12 06:51:05;;;;;;;24.00;17.57;;;9.30;99.90;;;;;;5030733;28;20267;-68
2022/11/12 06:53:31;;;;;;;25.03;17.13;;;9.20;99.90;;;;;;5030482;28;20199;-67
2022/11/12 06:56:02;;;;;;;23.53;17.83;;;9.20;99.90;;;;;;5029991;28;20211;-68
2022/11/12 06:58:29;;;;;;;25.83;17.83;;;9.20;99.90;;;;;;5029781;28;20191;-68
2022/11/12 07:00:56;;;;;;;23.53;17.20;;;9.20;99.90;;;;;;5028437;28;20239;-67
2022/11/12 07:03:23;;;;;;;25.30;17.73;;;9.20;99.90;;;;;;5029356;28;20249;-68
2022/11/12 07:05:49;;;;;;;23.03;17.43;;;9.10;99.90;;;;;;5029699;28;20214;-67
2022/11/12 07:08:18;;;;;;;23.80;16.50;;;9.10;99.90;;;;;;5029265;28;20218;-68
2022/11/12 07:10:44;;;;;;;24.67;17.73;;;9.10;99.90;;;;;;5029691;28;20195;-68
2022/11/12 07:13:12;;;;;;;25.67;17.00;;;9.10;99.90;;;;;;5029900;28;20214;-68
2022/11/12 07:15:38;;;;;;;27.17;18.03;;;9.10;99.90;;;;;;5029016;28;20448;-67
2022/11/12 07:18:05;;;;;;;24.83;16.33;;;9.10;99.90;;;;;;5030168;28;20203;-67
2022/11/12 07:20:32;;;;;;;27.50;17.53;;;9.10;99.90;;;;;;5029784;28;20719;-67
2022/11/12 07:23:00;;;;;;;25.13;16.83;;;9.20;99.90;;;;;;5030127;28;20262;-67
2022/11/12 07:25:28;;;;;;;25.63;16.73;;;9.10;99.90;;;;;;5029611;28;20210;-68
2022/11/12 07:27:55;;;;;;;24.57;17.83;;;9.10;99.90;;;;;;5029777;28;20215;-67
2022/11/12 07:30:22;;;;;;;24.87;16.63;;;9.20;99.90;;;;;;5029903;28;20251;-67
2022/11/12 07:32:48;;;;;;;27.10;18.90;;;9.20;99.90;;;;;;5030210;28;20298;-67
2022/11/12 07:35:15;;;;;;;26.77;17.67;;;9.20;99.90;;;;;;5029840;28;20214;-67
2022/11/12 07:37:42;;;;;;;26.50;17.83;;;9.20;99.90;;;;;;5029458;28;20200;-68
2022/11/12 07:40:10;;;;;;;35.87;18.40;;;9.20;99.90;;;;;;5028852;28;20219;-67
2022/11/12 07:42:38;;;;;;;26.27;18.40;;;9.30;99.90;;;;;;5029364;28;20241;-67
2022/11/12 07:45:05;;;;;;;28.33;18.30;;;9.30;99.90;;;;;;5029133;28;20203;-69
2022/11/12 07:47:33;;;;;;;28.47;18.70;;;9.30;99.90;;;;;;5029606;28;20210;-68
2022/11/12 07:50:00;;;;;;;30.47;20.00;;;9.40;99.90;;;;;;5028248;28;20203;-68
2022/11/12 07:52:26;;;;;;;24.67;19.20;;;9.50;99.90;;;;;;5030178;28;20226;-68
2022/11/12 07:54:53;;;;;;;29.37;19.77;;;9.40;99.90;;;;;;5031310;28;20199;-67
2022/11/12 07:57:20;;;;;;;26.17;20.17;;;9.40;99.90;;;;;;5029006;28;20207;-67
2022/11/12 07:59:48;;;;;;;28.93;19.63;;;9.40;99.90;;;;;;5029447;28;20231;-67
2022/11/12 08:02:15;;;;;;;30.27;21.27;;;9.40;99.90;;;;;;5030862;28;20263;-68
2022/11/12 08:04:42;;;;;;;29.00;19.63;;;9.40;99.90;;;;;;5031061;28;20267;-68
2022/11/12 08:07:09;;;;;;;29.97;19.87;;;9.40;99.90;;;;;;5031214;28;20211;-69
2022/11/12 08:09:36;;;;;;;28.73;19.73;;;9.40;99.90;;;;;;5029956;28;20225;-67
2022/11/12 08:12:03;;;;;;;28.77;21.07;;;9.50;99.90;;;;;;5030640;28;20203;-68
2022/11/12 08:14:30;;;;;;;27.77;20.60;;;9.50;99.90;;;;;;5031207;28;20221;-68
2022/11/12 08:16:58;;;;;;;33.23;21.27;;;9.50;99.90;;;;;;5030975;28;20207;-68
2022/11/12 08:19:25;;;;;;;32.00;21.43;;;9.50;99.90;;;;;;5031154;28;20222;-68
2022/11/12 08:21:51;;;;;;;31.10;21.47;;;9.60;99.90;;;;;;5029580;28;20286;-69
2022/11/12 08:24:18;;;;;;;31.70;20.87;;;9.60;99.90;;;;;;5028093;28;20222;-68
2022/11/12 08:26:45;;;;;;;31.07;21.60;;;9.60;99.90;;;;;;5028344;28;20214;-67
2022/11/12 08:29:12;;;;;;;28.77;21.47;;;9.60;99.90;;;;;;5029439;28;20207;-68
2022/11/12 08:31:39;;;;;;;29.37;21.07;;;9.60;99.90;;;;;;5030053;28;20210;-68
2022/11/12 08:34:11;;;;;;;32.00;21.57;;;9.60;99.90;;;;;;5029918;28;20271;-68
2022/11/12 08:36:40;;;;;;;29.47;20.97;;;9.60;99.90;;;;;;5028395;28;20218;-66
2022/11/12 08:39:07;;;;;;;32.50;21.67;;;9.70;99.90;;;;;;5030069;28;20210;-68
2022/11/12 08:41:34;;;;;;;30.97;20.73;;;9.70;99.90;;;;;;5030024;28;20223;-68
2022/11/12 08:44:01;;;;;;;27.60;20.10;;;9.70;99.90;;;;;;5030341;28;20207;-68
2022/11/12 08:46:29;;;;;;;24.43;18.60;;;9.70;99.90;;;;;;5029119;28;20679;-68
2022/11/12 08:48:56;;;;;;;28.80;20.00;;;9.70;99.90;;;;;;5030011;28;20245;-68
2022/11/12 08:51:24;;;;;;;27.33;19.90;;;9.70;99.90;;;;;;5029413;28;20195;-67
2022/11/12 08:53:51;;;;;;;28.90;21.40;;;9.60;99.90;;;;;;5030332;28;20212;-67
2022/11/12 08:56:18;;;;;;;29.67;20.47;;;9.60;99.90;;;;;;5029239;28;20207;-68
2022/11/12 08:58:45;;;;;;;30.27;20.50;;;9.60;99.90;;;;;;5030035;28;20186;-69
2022/11/12 09:01:12;;;;;;;32.80;20.93;;;9.60;99.90;;;;;;5030152;28;20223;-67
2022/11/12 09:03:38;;;;;;;28.50;20.33;;;9.60;99.90;;;;;;5029682;28;20239;-68
2022/11/12 09:06:06;;;;;;;33.53;21.77;;;9.60;99.90;;;;;;5030099;28;20286;-68
2022/11/12 09:08:36;;;;;;;31.97;21.33;;;9.60;99.90;;;;;;5029899;28;20215;-67
2022/11/12 09:11:03;;;;;;;30.00;21.23;;;9.60;99.90;;;;;;5028908;28;20199;-68
2022/11/12 09:13:30;;;;;;;30.80;21.87;;;9.70;99.90;;;;;;5029119;28;20294;-70
2022/11/12 09:16:02;;;;;;;32.83;20.33;;;9.70;99.90;;;;;;5030018;28;20267;-67
2022/11/12 09:18:29;;;;;;;30.83;21.50;;;9.70;99.90;;;;;;5029268;28;20195;-68
2022/11/12 09:21:00;;;;;;;30.33;21.30;;;9.70;99.90;;;;;;5029466;28;20238;-67
2022/11/12 09:23:27;;;;;;;31.33;20.90;;;9.60;99.90;;;;;;5029549;28;20191;-67
2022/11/12 09:25:56;;;;;;;32.37;20.93;;;9.60;99.90;;;;;;5028386;28;20230;-67
2022/11/12 09:28:23;;;;;;;28.50;20.50;;;9.60;99.90;;;;;;5028424;28;20253;-68
2022/11/12 09:30:51;;;;;;;28.60;20.67;;;9.60;99.90;;;;;;5028562;28;20206;-68
2022/11/12 09:33:20;;;;;;;29.90;20.60;;;9.60;99.90;;;;;;5029708;28;20217;-68
2022/11/12 09:35:47;;;;;;;31.87;21.90;;;9.60;99.90;;;;;;5029554;28;20572;-68
2022/11/12 09:38:15;;;;;;;33.73;22.67;;;9.60;99.90;;;;;;5028788;28;20203;-68
2022/11/12 09:40:56;;;;;;;30.70;21.53;;;9.60;99.90;;;;;;5028459;28;20435;-67
2022/11/12 09:43:28;;;;;;;31.90;22.73;;;9.60;99.90;;;;;;5031789;28;20203;-68
2022/11/12 09:45:59;;;;;;;29.33;21.70;;;9.60;99.90;;;;;;5031785;28;20194;-67
2022/11/12 09:48:33;;;;;;;32.00;22.37;;;9.70;99.90;;;;;;5032585;28;20195;-67
2022/11/12 09:51:04;;;;;;;32.53;21.47;;;9.60;99.90;;;;;;5032974;28;20253;-68
2022/11/12 09:53:36;;;;;;;34.60;23.43;;;9.60;99.90;;;;;;5032840;28;20191;-67
2022/11/12 09:56:07;;;;;;;32.07;22.80;;;9.60;99.90;;;;;;5033571;28;20260;-68
2022/11/12 09:58:36;;;;;;;27.87;20.47;;;9.60;99.90;;;;;;5033368;28;20324;-68
2022/11/12 10:01:10;;;;;;;32.07;21.37;;;9.70;99.90;;;;;;5031889;28;20706;-67
2022/11/12 10:03:44;;;;;;;32.83;22.53;;;9.70;99.90;;;;;;5031729;28;20257;-68
2022/11/12 10:06:15;;;;;;;30.67;21.70;;;9.70;99.90;;;;;;5031558;28;20210;-67
2022/11/12 10:08:50;;;;;;;29.67;21.20;;;9.70;99.90;;;;;;5031194;28;20210;-68
2022/11/12 10:14:51;;;;;;;28.40;20.80;;;9.70;99.90;;;;;;5028275;28;20214;-69
2022/11/12 10:17:26;;;;;;;30.33;21.93;;;9.70;99.90;;;;;;5013236;28;20188;-67
2022/11/12 10:20:13;;;;;;;26.83;19.63;;;9.70;99.90;;;;;;5012516;28;20191;-67
2022/11/12 10:22:50;;;;;;;30.83;20.77;;;9.70;99.90;;;;;;5012909;28;20252;-68
2022/11/12 10:25:19;;;;;;;29.17;20.47;;;9.70;99.90;;;;;;5012410;28;20202;-69
2022/11/12 10:27:46;;;;;;;25.63;20.23;;;9.70;99.90;;;;;;5012694;28;20204;-69
2022/11/12 10:30:17;;;;;;;30.03;21.43;;;9.70;99.90;;;;;;5012966;28;20269;-68
2022/11/12 10:32:45;;;;;;;28.23;20.73;;;9.70;99.90;;;;;;5024283;28;20203;-68
2022/11/12 10:35:15;;;;;;;27.27;20.83;;;9.80;99.90;;;;;;5032176;28;20203;-68
2022/11/12 10:37:46;;;;;;;28.97;20.97;;;9.80;99.90;;;;;;5031258;28;20263;-69
2022/11/12 10:40:29;;;;;;;25.70;19.70;;;9.80;99.90;;;;;;5032118;28;20222;-68
2022/11/12 10:42:58;;;;;;;26.10;19.47;;;9.80;99.90;;;;;;5031824;28;20219;-68
2022/11/12 10:45:26;;;;;;;28.53;19.57;;;9.80;99.90;;;;;;5032144;28;20226;-68
2022/11/12 10:47:53;;;;;;;25.33;19.77;;;9.80;99.90;;;;;;5031675;28;20203;-68
2022/11/12 10:50:22;;;;;;;25.83;19.70;;;9.90;99.90;;;;;;5030576;28;20238;-67
2022/11/12 10:52:58;;;;;;;26.33;19.40;;;9.90;99.90;;;;;;5030191;28;20270;-67
2022/11/12 10:55:27;;;;;;;24.00;18.93;;;9.90;99.90;;;;;;5031788;28;20246;-69
2022/11/12 10:58:13;;;;;;;22.13;17.00;;;9.90;99.90;;;;;;5030985;28;20211;-67
2022/11/12 11:00:54;;;;;;;24.30;17.10;;;9.90;99.90;;;;;;5030275;28;20235;-68
2022/11/12 11:03:23;;;;;;;23.53;17.17;;;9.90;99.90;;;;;;5030839;28;20253;-68
2022/11/12 11:05:53;;;;;;;21.13;17.57;;;9.90;99.90;;;;;;5030331;28;20246;-67
2022/11/12 11:08:34;;;;;;;21.57;17.43;;;9.90;99.90;;;;;;5030444;28;20238;-67
2022/11/12 11:11:23;;;;;;;24.80;16.10;;;9.90;99.90;;;;;;5030888;28;20243;-67
2022/11/12 11:13:51;;;;;;;25.67;19.43;;;9.90;99.90;;;;;;5030692;28;20180;-68
2022/11/12 11:16:21;;;;;;;24.87;17.43;;;9.90;99.90;;;;;;5030826;28;20192;-68
2022/11/12 11:18:51;;;;;;;25.97;17.80;;;9.90;99.90;;;;;;5030433;28;20191;-68
2022/11/12 11:21:37;;;;;;;21.87;16.37;;;9.90;99.90;;;;;;5031044;28;20251;-70
2022/11/12 11:24:19;;;;;;;22.63;17.53;;;9.90;99.90;;;;;;5030583;28;20286;-67
2022/11/12 11:26:56;;;;;;;21.97;17.27;;;9.80;99.90;;;;;;5030959;28;20204;-68
2022/11/12 11:29:50;;;;;;;20.70;16.53;;;9.90;99.90;;;;;;5031345;28;20187;-68
2022/11/12 11:32:34;;;;;;;20.63;16.50;;;9.90;99.90;;;;;;5030581;28;20255;-68
2022/11/12 11:35:13;;;;;;;23.53;16.47;;;9.90;99.90;;;;;;5030975;28;20195;-67
2022/11/12 11:37:49;;;;;;;21.73;16.90;;;9.90;99.90;;;;;;5030826;28;20191;-68
2022/11/12 11:40:25;;;;;;;21.60;16.63;;;10.00;99.90;;;;;;5029269;28;20298;-67
2022/11/12 11:43:05;;;;;;;19.60;15.13;;;9.90;99.90;;;;;;5030249;28;20215;-68
2022/11/12 11:45:45;;;;;;;20.90;16.10;;;9.90;99.90;;;;;;5030962;28;20201;-68
2022/11/12 11:48:24;;;;;;;22.70;17.23;;;9.90;99.90;;;;;;5030510;28;20265;-67
2022/11/12 11:50:59;;;;;;;22.07;15.80;;;9.90;99.90;;;;;;5030637;28;20211;-69
2022/11/12 11:53:29;;;;;;;20.03;16.13;;;9.90;99.90;;;;;;5029694;28;20187;-68
2022/11/12 11:56:01;;;;;;;23.87;16.30;;;9.90;99.90;;;;;;5027999;28;20216;-68
2022/11/12 11:58:55;;;;;;;19.53;16.10;;;9.90;99.90;;;;;;5029361;28;20195;-68
2022/11/12 12:01:30;;;;;;;21.10;16.10;;;9.90;99.90;;;;;;5029403;28;20221;-67
2022/11/12 12:04:20;;;;;;;20.97;16.33;;;9.90;99.90;;;;;;5029060;28;20242;-69
2022/11/12 12:07:08;;;;;;;23.80;17.37;;;10.00;99.90;;;;;;5029052;28;20199;-68
2022/11/12 12:09:44;;;;;;;23.03;14.87;;;10.00;99.90;;;;;;5029430;28;20218;-68
2022/11/12 12:12:25;;;;;;;17.93;13.63;;;10.00;99.90;;;;;;5027543;28;20206;-69
2022/11/12 12:14:58;;;;;;;20.63;13.90;;;10.00;99.90;;;;;;5028443;28;20192;-68
2022/11/12 12:17:39;;;;;;;18.00;13.93;;;9.90;99.90;;;;;;5029367;28;20192;-68
2022/11/12 12:20:18;;;;;;;18.20;13.43;;;10.00;99.90;;;;;;5029156;28;20563;-68
2022/11/12 12:22:49;;;;;;;18.50;13.60;;;9.90;99.90;;;;;;5029199;28;20214;-69
2022/11/12 12:25:19;;;;;;;16.80;11.83;;;10.00;99.90;;;;;;5029492;28;20207;-68
2022/11/12 12:27:51;;;;;;;18.97;12.27;;;10.00;99.90;;;;;;5028065;28;20232;-67
2022/11/12 12:30:21;;;;;;;18.37;12.50;;;10.00;99.90;;;;;;5028961;28;20195;-67
2022/11/12 12:32:54;;;;;;;18.53;14.10;;;10.00;99.90;;;;;;5028988;28;20196;-68
2022/11/12 12:35:27;;;;;;;17.27;12.30;;;10.00;99.90;;;;;;5030147;28;20176;-69
2022/11/12 12:38:01;;;;;;;15.80;13.00;;;10.00;99.90;;;;;;5029324;28;20302;-68
2022/11/12 12:40:33;;;;;;;18.40;12.77;;;10.00;99.90;;;;;;5029239;28;20187;-68
2022/11/12 12:43:05;;;;;;;17.83;13.20;;;10.00;99.90;;;;;;5029001;28;20218;-68
2022/11/12 12:45:39;;;;;;;15.60;12.47;;;10.10;99.90;;;;;;5027890;28;20208;-68
2022/11/12 12:48:12;;;;;;;16.03;12.00;;;10.10;99.90;;;;;;5028422;28;20191;-67
2022/11/12 12:50:42;;;;;;;15.20;11.87;;;10.00;99.90;;;;;;5021690;28;20199;-66
2022/11/12 12:53:18;;;;;;;18.30;12.50;;;10.10;99.90;;;;;;5015740;28;20652;-68
2022/11/12 12:55:46;;;;;;;15.57;11.93;;;10.10;99.90;;;;;;5014931;28;20559;-69
2022/11/12 12:58:26;;;;;;;16.10;12.77;;;10.10;99.90;;;;;;5013134;28;20199;-70
2022/11/12 13:00:56;;;;;;;20.73;14.00;;;10.10;99.90;;;;;;5011049;28;20234;-69
2022/11/12 13:03:50;;;;;;;17.87;12.00;;;10.10;99.90;;;;;;5009531;28;20227;-68
2022/11/12 13:06:26;;;;;;;18.47;11.67;;;10.10;99.90;;;;;;5011434;28;20233;-68
2022/11/12 13:08:56;;;;;;;17.33;12.40;;;10.20;99.90;;;;;;5014486;28;20289;-67
2022/11/12 13:14:51;;;;;;;16.90;12.50;;;10.20;99.90;;;;;;5016805;28;20202;-68